Time;durP1;ratioP1;P1;durP2;ratioP2;P2;SDS_P1;SDS_P2;PMS_P1;PMS_P2;Temp;Humidity;BMP_temperature;BMP_pressure;BME280_temperature;BME280_humidity;BME280_pressure;Samples;Min_cycle;Max_cycle;Signal;HPM_P1;HPM_P2
2022/07/28 00:01:28;;;;;;;5.42;2.70;;;;;;;22.76;58.35;100069.16;1829668;77;20946;-71
2022/07/28 00:03:56;;;;;;;6.55;2.62;;;;;;;22.73;58.40;100063.38;1848290;77;20950;-71
2022/07/28 00:06:22;;;;;;;4.35;2.77;;;;;;;22.71;58.57;100068.14;1847461;77;21081;-71
2022/07/28 00:08:48;;;;;;;4.65;2.80;;;;;;;22.69;58.74;100059.45;1849062;77;22590;-72
2022/07/28 00:11:15;;;;;;;4.90;2.45;;;;;;;22.68;58.86;100063.16;1849779;77;20931;-72
2022/07/28 00:13:42;;;;;;;5.17;2.87;;;;;;;22.68;58.88;100064.02;1849581;77;20983;-71
2022/07/28 00:16:09;;;;;;;4.33;2.92;;;;;;;22.68;59.08;100065.84;1849507;77;21038;-71
2022/07/28 00:18:36;;;;;;;3.47;2.58;;;;;;;22.64;59.21;100062.75;1849981;77;20930;-71
2022/07/28 00:21:02;;;;;;;3.70;3.00;;;;;;;22.59;59.19;100066.60;1849817;77;21798;-72
2022/07/28 00:23:29;;;;;;;7.17;2.80;;;;;;;22.60;59.25;100065.56;1849204;77;21029;-72
2022/07/28 00:25:56;;;;;;;2.95;2.40;;;;;;;22.59;59.36;100061.73;1848880;77;20947;-72
2022/07/28 00:28:22;;;;;;;5.45;2.70;;;;;;;22.55;59.58;100063.48;1849992;77;20962;-71
2022/07/28 00:30:48;;;;;;;5.60;3.17;;;;;;;22.55;59.56;100062.65;1818186;77;21064;-72
2022/07/28 00:33:15;;;;;;;5.87;2.65;;;;;;;22.54;59.57;100064.52;1833049;77;21914;-72
2022/07/28 00:35:41;;;;;;;4.15;2.40;;;;;;;22.54;59.68;100067.73;1843683;77;20974;-72
2022/07/28 00:38:10;;;;;;;4.75;2.67;;;;;;;22.49;59.73;100070.23;1816273;79;21029;-72
2022/07/28 00:43:21;;;;;;;5.40;2.60;;;;;;;22.39;59.98;100065.25;1850132;77;20990;-72
2022/07/28 00:45:49;;;;;;;3.83;2.58;;;;;;;22.34;60.19;100066.89;1849604;77;21388;-70
2022/07/28 00:48:16;;;;;;;5.12;2.70;;;;;;;22.30;60.23;100071.04;1839555;77;20981;-72
2022/07/28 00:50:43;;;;;;;3.45;2.40;;;;;;;22.25;60.46;100068.95;1816314;78;21040;-71
2022/07/28 00:53:09;;;;;;;4.72;2.80;;;;;;;22.20;60.59;100070.92;1789144;79;20986;-72
2022/07/28 00:55:37;;;;;;;4.70;2.85;;;;;;;22.15;60.69;100072.04;1835121;77;20938;-71
2022/07/28 00:58:04;;;;;;;4.97;3.02;;;;;;;22.11;60.90;100078.88;1829412;77;21911;-71
2022/07/28 01:00:32;;;;;;;4.40;2.90;;;;;;;22.05;61.13;100083.68;1776602;76;20998;-72
2022/07/28 01:02:58;;;;;;;4.15;2.65;;;;;;;21.98;61.35;100082.83;1792678;78;20972;-72
2022/07/28 01:05:28;;;;;;;4.62;2.87;;;;;;;21.94;61.52;100088.31;1783448;79;21014;-72
2022/07/28 01:08:01;;;;;;;6.03;2.80;;;;;;;21.92;61.68;100085.00;1772955;81;20955;-72
2022/07/28 01:10:42;;;;;;;6.12;2.85;;;;;;;21.87;62.03;100086.11;1783437;80;22224;-72
2022/07/28 01:13:37;;;;;;;4.55;2.95;;;;;;;21.80;62.35;100087.42;1783080;79;20988;-72
2022/07/28 01:16:05;;;;;;;3.95;2.72;;;;;;;21.74;62.50;100088.25;1783391;80;20973;-71
2022/07/28 01:18:59;;;;;;;5.12;2.80;;;;;;;21.70;62.65;100089.14;1787067;79;21155;-72
2022/07/28 01:21:33;;;;;;;4.80;3.10;;;;;;;21.67;63.05;100094.93;1752430;82;20952;-72
2022/07/28 01:24:20;;;;;;;5.20;3.10;;;;;;;21.54;63.46;100088.68;1737661;82;21399;-72
2022/07/28 01:27:00;;;;;;;4.22;3.33;;;;;;;21.57;63.48;100086.92;1750687;82;20949;-72
2022/07/28 01:30:07;;;;;;;4.00;3.00;;;;;;;21.53;63.86;100079.80;1745742;79;21002;-72
2022/07/28 01:32:43;;;;;;;6.85;3.33;;;;;;;21.42;64.18;100086.57;1787729;79;21382;-72
2022/07/28 01:35:24;;;;;;;4.05;3.15;;;;;;;21.41;64.56;100091.59;1804416;79;21095;-71
2022/07/28 01:37:54;;;;;;;6.67;3.30;;;;;;;21.38;64.79;100092.52;1800607;79;22751;-71
2022/07/28 01:40:24;;;;;;;5.00;3.70;;;;;;;21.37;64.91;100082.81;1804368;79;21003;-71
2022/07/28 01:42:55;;;;;;;5.17;3.20;;;;;;;21.38;65.18;100084.46;1804580;79;21008;-72
2022/07/28 01:45:22;;;;;;;3.83;3.42;;;;;;;21.34;65.53;100082.70;1775060;79;20999;-72
2022/07/28 01:47:52;;;;;;;6.17;3.22;;;;;;;21.34;65.64;100089.41;1792192;79;21172;-73
2022/07/28 01:50:20;;;;;;;5.45;3.50;;;;;;;21.36;65.90;100091.90;1795934;79;21959;-73
2022/07/28 01:52:47;;;;;;;4.12;3.58;;;;;;;21.36;66.10;100088.69;1802519;79;21439;-72
2022/07/28 01:55:17;;;;;;;5.60;3.62;;;;;;;21.38;66.14;100092.52;1804250;79;20944;-72
2022/07/28 01:57:43;;;;;;;5.05;3.40;;;;;;;21.40;66.28;100099.34;1804246;79;21499;-73
2022/07/28 02:00:12;;;;;;;5.12;3.60;;;;;;;21.41;66.26;100111.75;1802401;79;21078;-72
2022/07/28 02:02:46;;;;;;;4.47;3.42;;;;;;;21.41;66.54;100113.09;1792542;78;21521;-72
2022/07/28 02:05:16;;;;;;;5.23;3.47;;;;;;;21.40;66.69;100111.95;1821918;78;21012;-72
2022/07/28 02:07:43;;;;;;;6.10;3.35;;;;;;;21.37;66.96;100116.39;1817799;77;21449;-72
2022/07/28 02:10:14;;;;;;;8.98;3.62;;;;;;;21.31;67.31;100118.00;1816184;79;20998;-72
2022/07/28 02:12:40;;;;;;;6.20;3.52;;;;;;;21.27;67.47;100119.44;1789731;79;21428;-72
2022/07/28 02:15:08;;;;;;;5.05;3.40;;;;;;;21.28;67.52;100131.00;1789201;79;21866;-72
2022/07/28 02:17:37;;;;;;;5.67;3.65;;;;;;;21.25;67.74;100127.34;1816750;77;20922;-72
2022/07/28 02:20:08;;;;;;;3.90;3.50;;;;;;;21.22;67.89;100129.89;1816091;79;20990;-72
2022/07/28 02:22:36;;;;;;;6.87;3.58;;;;;;;21.21;67.96;100124.20;1816897;77;21021;-72
2022/07/28 02:25:03;;;;;;;7.17;3.67;;;;;;;21.21;68.11;100130.09;1849571;77;21041;-72
2022/07/28 02:27:45;;;;;;;5.15;3.70;;;;;;;21.19;68.19;100128.13;1849632;77;22216;-72
2022/07/28 02:30:21;;;;;;;4.53;3.70;;;;;;;21.17;68.25;100135.04;1848048;77;21088;-72
2022/07/28 02:32:54;;;;;;;6.25;3.95;;;;;;;21.11;68.58;100130.44;1848913;77;21017;-72
2022/07/28 02:35:53;;;;;;;5.20;3.90;;;;;;;21.06;68.75;100135.07;1849796;77;21017;-72
2022/07/28 02:38:24;;;;;;;7.83;3.95;;;;;;;21.03;68.92;100133.27;1849586;77;21058;-71
2022/07/28 02:40:53;;;;;;;3.85;3.45;;;;;;;21.01;69.04;100134.81;1848524;77;22055;-72
2022/07/28 02:43:28;;;;;;;5.60;3.87;;;;;;;21.00;69.18;100133.16;1849466;77;20971;-71
2022/07/28 02:45:57;;;;;;;6.55;4.00;;;;;;;20.96;69.37;100137.27;1849742;77;20986;-72
2022/07/28 02:48:27;;;;;;;4.95;3.98;;;;;;;20.93;69.55;100147.03;1821008;77;20974;-72
2022/07/28 02:50:55;;;;;;;5.87;4.17;;;;;;;20.93;69.68;100157.77;1815350;79;21476;-72
2022/07/28 02:53:22;;;;;;;9.90;4.35;;;;;;;20.92;69.92;100156.12;1816153;78;21765;-72
2022/07/28 02:55:49;;;;;;;5.95;4.03;;;;;;;20.89;70.25;100151.14;1816211;78;20917;-72
2022/07/28 02:58:20;;;;;;;6.70;4.20;;;;;;;20.86;70.31;100156.40;1840365;77;20935;-72
2022/07/28 03:00:49;;;;;;;6.25;4.42;;;;;;;20.89;70.36;100155.17;1844707;77;20950;-72
2022/07/28 03:03:20;;;;;;;5.30;4.70;;;;;;;20.90;70.55;100157.34;1782962;79;21438;-72
2022/07/28 03:05:48;;;;;;;5.78;4.42;;;;;;;20.89;70.74;100150.31;1783179;79;21363;-73
2022/07/28 03:08:17;;;;;;;7.15;4.35;;;;;;;20.90;70.92;100150.12;1783180;80;21018;-72
2022/07/28 03:10:44;;;;;;;6.97;4.17;;;;;;;20.86;71.28;100152.89;1783237;80;20992;-72
2022/07/28 03:13:10;;;;;;;7.58;4.37;;;;;;;20.82;71.54;100154.28;1758809;80;21069;-72
2022/07/28 03:15:39;;;;;;;5.42;4.47;;;;;;;20.83;71.72;100158.63;1759623;81;21271;-72
2022/07/28 03:18:06;;;;;;;6.22;4.75;;;;;;;20.84;71.81;100157.11;1765072;79;22179;-72
2022/07/28 03:20:33;;;;;;;6.45;4.90;;;;;;;20.85;71.98;100162.80;1821729;78;20967;-72
2022/07/28 03:23:01;;;;;;;6.00;4.65;;;;;;;20.83;72.14;100163.47;1799755;79;20993;-72
2022/07/28 03:25:36;;;;;;;6.08;4.60;;;;;;;20.81;72.23;100166.05;1799777;79;20958;-72
2022/07/28 03:28:04;;;;;;;6.28;5.15;;;;;;;20.83;72.32;100159.97;1821492;78;21466;-72
2022/07/28 03:30:40;;;;;;;5.62;4.85;;;;;;;20.83;72.47;100160.79;1779188;79;22564;-72
2022/07/28 03:33:07;;;;;;;7.85;4.72;;;;;;;20.84;72.56;100166.98;1768326;81;20933;-72
2022/07/28 03:35:35;;;;;;;6.92;4.72;;;;;;;20.85;72.58;100164.66;1789693;80;21025;-72
2022/07/28 03:38:09;;;;;;;4.85;4.40;;;;;;;20.87;72.74;100171.99;1789482;79;20974;-72
2022/07/28 03:40:36;;;;;;;6.12;4.72;;;;;;;20.84;72.79;100171.02;1789744;80;21421;-72
2022/07/28 03:43:05;;;;;;;5.95;4.70;;;;;;;20.81;72.83;100166.05;1740752;80;21850;-72
2022/07/28 03:45:31;;;;;;;6.85;4.50;;;;;;;20.83;72.99;100162.13;1789575;80;21011;-72
2022/07/28 03:47:59;;;;;;;4.95;4.22;;;;;;;20.86;72.96;100165.80;1790722;78;21155;-72
2022/07/28 03:50:28;;;;;;;6.72;4.78;;;;;;;20.90;72.91;100170.25;1737780;81;20969;-72
2022/07/28 03:52:55;;;;;;;5.22;4.47;;;;;;;20.93;72.83;100174.39;1768324;81;21487;-73
2022/07/28 03:55:22;;;;;;;5.08;4.58;;;;;;;20.91;72.73;100181.82;1806534;78;22454;-72
2022/07/28 03:57:49;;;;;;;5.92;4.47;;;;;;;20.87;72.71;100190.78;1800097;79;20961;-73
2022/07/28 04:00:16;;;;;;;9.60;4.87;;;;;;;20.88;72.76;100192.44;1798808;78;21012;-73
2022/07/28 04:02:44;;;;;;;4.28;3.87;;;;;;;20.93;72.82;100203.93;1818763;78;21405;-72
2022/07/28 04:05:12;;;;;;;6.87;4.22;;;;;;;20.97;72.65;100196.66;1790520;79;21044;-72
2022/07/28 04:07:40;;;;;;;7.55;4.50;;;;;;;21.02;72.62;100201.42;1822097;78;21019;-72
2022/07/28 04:10:14;;;;;;;5.87;4.50;;;;;;;21.02;72.41;100194.20;1822253;78;20928;-72
2022/07/28 04:12:54;;;;;;;4.95;4.33;;;;;;;21.01;72.15;100201.11;1821348;77;20975;-72
2022/07/28 04:15:21;;;;;;;5.35;4.03;;;;;;;20.98;72.07;100201.52;1815560;79;21011;-72
2022/07/28 04:17:48;;;;;;;6.72;4.70;;;;;;;20.92;71.99;100191.02;1784392;79;21080;-74
2022/07/28 04:20:16;;;;;;;5.42;4.20;;;;;;;20.91;71.90;100188.53;1783417;79;22396;-72
2022/07/28 04:22:46;;;;;;;4.47;3.85;;;;;;;20.90;71.87;100189.56;1773549;79;20976;-72
2022/07/28 04:25:15;;;;;;;5.83;4.20;;;;;;;20.84;71.79;100187.98;1816298;79;21432;-71
2022/07/28 04:27:42;;;;;;;5.30;4.08;;;;;;;20.81;71.85;100192.38;1816274;79;20986;-71
2022/07/28 04:30:16;;;;;;;4.15;3.75;;;;;;;20.86;71.94;100197.19;1817078;77;21013;-71
2022/07/28 04:32:47;;;;;;;4.47;3.70;;;;;;;20.94;71.97;100201.08;1816430;79;22549;-73
2022/07/28 04:35:14;;;;;;;3.85;3.45;;;;;;;21.01;71.80;100199.26;1816638;79;21453;-72
2022/07/28 04:37:42;;;;;;;3.83;3.35;;;;;;;21.07;71.10;100193.64;1816360;79;21388;-73
2022/07/28 04:40:10;;;;;;;7.47;3.58;;;;;;;21.14;70.70;100191.84;1838450;77;20990;-73
2022/07/28 04:42:38;;;;;;;5.83;3.90;;;;;;;21.18;70.20;100197.64;1849922;77;20931;-71
2022/07/28 04:45:06;;;;;;;4.50;3.60;;;;;;;21.26;70.06;100213.62;1849662;77;21835;-72
2022/07/28 04:47:33;;;;;;;3.92;3.52;;;;;;;21.32;69.51;100219.57;1846198;77;21045;-72
2022/07/28 04:50:00;;;;;;;5.70;3.65;;;;;;;21.29;69.27;100226.69;1849624;77;20998;-72
2022/07/28 04:52:27;;;;;;;5.10;3.40;;;;;;;21.29;69.13;100223.48;1847320;77;20950;-72
2022/07/28 04:54:53;;;;;;;4.20;3.77;;;;;;;21.33;68.90;100223.95;1849866;77;21164;-72
2022/07/28 04:57:21;;;;;;;4.80;3.75;;;;;;;21.37;68.97;100229.23;1824973;77;21577;-72
2022/07/28 04:59:48;;;;;;;4.03;3.62;;;;;;;21.43;68.66;100238.70;1820041;77;20879;-72
2022/07/28 05:02:14;;;;;;;6.35;3.70;;;;;;;21.48;68.37;100247.50;1801083;79;21414;-72
2022/07/28 05:04:42;;;;;;;4.50;3.75;;;;;;;21.50;68.21;100249.47;1815338;77;20995;-72
2022/07/28 05:07:10;;;;;;;4.72;3.87;;;;;;;21.51;67.69;100248.44;1815633;79;21378;-72
2022/07/28 05:09:38;;;;;;;5.30;4.25;;;;;;;21.47;67.54;100232.41;1815496;77;21938;-72
2022/07/28 05:12:06;;;;;;;4.97;3.80;;;;;;;21.48;67.64;100232.72;1815279;77;21371;-72
2022/07/28 05:14:33;;;;;;;5.33;3.83;;;;;;;21.49;67.63;100237.06;1788775;79;21425;-72
2022/07/28 05:17:01;;;;;;;5.47;3.92;;;;;;;21.49;67.49;100234.38;1800652;79;21079;-72
2022/07/28 05:19:28;;;;;;;4.97;3.67;;;;;;;21.49;67.57;100230.34;1804275;79;21479;-71
2022/07/28 05:21:55;;;;;;;3.25;2.92;;;;;;;21.52;67.49;100245.23;1788684;79;21875;-72
2022/07/28 05:24:21;;;;;;;5.65;3.20;;;;;;;21.56;67.47;100243.32;1772568;81;21043;-71
2022/07/28 05:26:48;;;;;;;3.80;3.12;;;;;;;21.63;67.27;100250.92;1772682;81;20936;-71
2022/07/28 05:29:15;;;;;;;4.12;3.30;;;;;;;21.75;67.21;100253.06;1772583;81;20980;-71
2022/07/28 05:31:41;;;;;;;3.40;3.02;;;;;;;21.86;66.74;100255.19;1801231;79;21007;-72
2022/07/28 05:34:08;;;;;;;7.65;3.37;;;;;;;21.92;66.13;100257.92;1804239;79;21967;-72
2022/07/28 05:36:35;;;;;;;6.85;3.40;;;;;;;21.95;65.82;100268.28;1774948;79;20915;-71
2022/07/28 05:39:02;;;;;;;4.65;3.20;;;;;;;21.98;65.61;100263.01;1804280;79;21035;-72
2022/07/28 05:41:29;;;;;;;6.17;3.40;;;;;;;21.99;65.44;100268.70;1804298;79;21007;-71
2022/07/28 05:43:57;;;;;;;3.05;2.75;;;;;;;22.00;65.20;100264.49;1804322;79;21411;-72
2022/07/28 05:46:23;;;;;;;4.35;3.12;;;;;;;22.03;64.95;100261.91;1780847;79;21837;-71
2022/07/28 05:48:50;;;;;;;6.00;2.90;;;;;;;22.03;64.54;100267.29;1802638;79;20967;-72
2022/07/28 05:51:17;;;;;;;7.78;3.08;;;;;;;22.00;64.59;100274.39;1796454;79;21041;-73
2022/07/28 05:53:44;;;;;;;2.87;2.60;;;;;;;21.96;64.59;100273.14;1800224;79;20987;-73
2022/07/28 05:56:12;;;;;;;3.58;2.80;;;;;;;21.98;64.67;100267.04;1804195;79;21008;-71
2022/07/28 05:58:40;;;;;;;3.52;2.92;;;;;;;22.01;64.73;100266.66;1804359;79;21584;-72
2022/07/28 06:01:07;;;;;;;3.75;2.62;;;;;;;22.10;64.88;100269.54;1804248;79;21090;-72
2022/07/28 06:03:33;;;;;;;3.67;2.50;;;;;;;22.20;64.16;100277.25;1815118;78;21067;-73
2022/07/28 06:06:00;;;;;;;3.85;2.72;;;;;;;22.26;63.59;100283.98;1783389;79;21243;-71
2022/07/28 06:08:27;;;;;;;2.95;2.40;;;;;;;22.33;63.51;100284.54;1772535;81;20964;-71
2022/07/28 06:11:01;;;;;;;3.95;2.50;;;;;;;22.38;63.20;100281.54;1772568;81;21970;-71
2022/07/28 06:13:28;;;;;;;2.40;2.20;;;;;;;22.40;62.33;100279.50;1772715;81;21095;-72
2022/07/28 06:15:57;;;;;;;5.37;2.40;;;;;;;22.39;62.23;100283.23;1772939;79;21454;-72
2022/07/28 06:18:25;;;;;;;3.45;2.30;;;;;;;22.46;62.46;100288.09;1772862;81;20984;-72
2022/07/28 06:20:52;;;;;;;2.90;2.10;;;;;;;22.54;61.91;100291.97;1774237;79;21071;-72
2022/07/28 06:23:22;;;;;;;3.47;2.05;;;;;;;22.56;61.74;100291.76;1783397;79;20920;-72
2022/07/28 06:25:50;;;;;;;3.35;2.20;;;;;;;22.62;61.82;100290.13;1804498;79;21018;-73
2022/07/28 06:28:20;;;;;;;8.53;2.17;;;;;;;22.73;61.56;100285.50;1804478;79;21043;-72
2022/07/28 06:30:47;;;;;;;2.58;2.00;;;;;;;22.81;61.43;100282.11;1802177;79;20944;-72
2022/07/28 06:33:15;;;;;;;2.47;1.90;;;;;;;22.92;61.10;100287.96;1804520;79;21058;-70
2022/07/28 06:35:42;;;;;;;2.42;1.95;;;;;;;22.97;60.42;100286.81;1804492;79;22616;-72
2022/07/28 06:38:09;;;;;;;5.72;2.27;;;;;;;23.02;60.42;100289.22;1796646;79;21059;-71
2022/07/28 06:40:36;;;;;;;2.70;1.70;;;;;;;23.12;60.55;100294.20;1772939;81;21045;-72
2022/07/28 06:43:02;;;;;;;1.85;1.50;;;;;;;23.18;59.81;100294.74;1772819;81;20972;-72
2022/07/28 06:45:29;;;;;;;5.53;1.80;;;;;;;23.17;59.35;100295.78;1755680;80;20957;-72
2022/07/28 06:47:57;;;;;;;3.62;1.77;;;;;;;23.13;59.15;100291.82;1785702;79;21733;-72
2022/07/28 06:50:24;;;;;;;2.05;1.80;;;;;;;23.12;59.26;100289.64;1797351;79;21028;-72
2022/07/28 06:52:55;;;;;;;2.30;1.92;;;;;;;23.21;59.71;100292.14;1771379;80;21006;-72
2022/07/28 06:55:24;;;;;;;4.40;1.80;;;;;;;23.30;59.07;100285.00;1752872;81;20995;-73
2022/07/28 06:57:50;;;;;;;3.17;1.87;;;;;;;23.36;58.86;100285.53;1798539;79;21027;-72
2022/07/28 07:00:17;;;;;;;15.75;3.40;;;;;;;23.45;58.34;100275.86;1772505;80;21894;-71
2022/07/28 07:02:44;;;;;;;2.45;1.57;;;;;;;23.55;57.91;100279.00;1783354;80;21401;-71
2022/07/28 07:05:11;;;;;;;5.33;2.10;;;;;;;23.59;57.89;100280.26;1784317;79;21027;-71
2022/07/28 07:07:39;;;;;;;3.02;1.50;;;;;;;23.61;57.80;100272.27;1784355;80;20996;-71
2022/07/28 07:10:06;;;;;;;2.02;1.40;;;;;;;23.61;57.71;100276.30;1784542;80;21473;-72
2022/07/28 07:12:34;;;;;;;3.17;1.50;;;;;;;23.60;57.35;100281.39;1786252;79;21861;-72
2022/07/28 07:15:03;;;;;;;4.97;1.40;;;;;;;23.58;56.94;100283.96;1773175;79;21481;-72
2022/07/28 07:17:31;;;;;;;3.25;1.30;;;;;;;23.59;57.18;100283.78;1772851;81;21058;-71
2022/07/28 07:19:59;;;;;;;3.00;1.20;;;;;;;23.67;56.68;100290.31;1772742;81;21475;-71
2022/07/28 07:22:26;;;;;;;3.12;1.15;;;;;;;23.71;55.41;100305.55;1773632;79;21466;-71
2022/07/28 07:24:53;;;;;;;1.55;1.12;;;;;;;23.70;54.46;100304.71;1772788;81;22767;-72
2022/07/28 07:27:20;;;;;;;1.75;1.00;;;;;;;23.69;54.30;100305.75;1795970;79;21428;-71
2022/07/28 07:29:48;;;;;;;1.30;1.00;;;;;;;23.68;53.98;100305.45;1788319;79;20976;-73
2022/07/28 07:32:14;;;;;;;1.20;1.07;;;;;;;23.76;54.48;100315.20;1772753;81;21027;-71
2022/07/28 07:34:42;;;;;;;3.42;1.12;;;;;;;23.90;54.54;100319.52;1772904;81;21475;-72
2022/07/28 07:37:12;;;;;;;2.37;1.20;;;;;;;24.08;54.42;100322.91;1773032;81;21895;-72
2022/07/28 07:39:37;;;;;;;1.32;1.20;;;;;;;24.23;54.07;100320.81;1772574;81;21017;-72
2022/07/28 07:42:04;;;;;;;4.40;1.20;;;;;;;24.34;53.69;100317.17;1772715;81;20999;-72
2022/07/28 07:44:31;;;;;;;3.37;1.30;;;;;;;24.47;53.37;100329.27;1792587;79;21036;-72
2022/07/28 07:46:58;;;;;;;1.67;1.10;;;;;;;24.59;52.10;100330.77;1786206;79;20944;-72
2022/07/28 07:49:24;;;;;;;1.47;1.10;;;;;;;24.64;52.02;100339.07;1772717;81;21922;-71
2022/07/28 07:51:51;;;;;;;1.75;0.95;;;;;;;24.68;51.91;100333.01;1775981;79;21502;-71
2022/07/28 07:54:17;;;;;;;3.62;1.10;;;;;;;24.72;52.08;100338.30;1775101;79;21435;-71
2022/07/28 07:56:44;;;;;;;3.62;1.10;;;;;;;24.74;52.40;100332.16;1772740;81;20983;-72
2022/07/28 07:59:10;;;;;;;1.82;1.10;;;;;;;24.78;51.94;100336.08;1773020;81;21098;-72
2022/07/28 08:01:37;;;;;;;1.72;0.90;;;;;;;24.75;51.12;100342.44;1779826;78;21975;-72
2022/07/28 08:04:04;;;;;;;1.32;1.00;;;;;;;24.61;50.86;100337.64;1800661;79;21070;-71
2022/07/28 08:06:31;;;;;;;1.40;1.05;;;;;;;24.58;50.71;100344.80;1804524;79;21589;-72
2022/07/28 08:08:57;;;;;;;3.83;1.17;;;;;;;24.53;50.54;100350.02;1804233;79;20956;-72
2022/07/28 08:11:25;;;;;;;1.40;1.00;;;;;;;24.47;50.07;100349.52;1804576;79;20995;-71
2022/07/28 08:13:52;;;;;;;1.40;1.00;;;;;;;24.43;50.61;100352.34;1789473;79;21498;-71
2022/07/28 08:16:19;;;;;;;3.65;1.10;;;;;;;24.48;50.95;100349.81;1772510;81;20944;-71
2022/07/28 08:18:46;;;;;;;13.95;1.42;;;;;;;24.52;50.90;100353.25;1772562;81;20963;-72
2022/07/28 08:21:15;;;;;;;1.15;0.95;;;;;;;24.54;50.82;100361.12;1794923;79;21030;-72
2022/07/28 08:23:42;;;;;;;5.97;1.25;;;;;;;24.54;50.71;100359.25;1804521;79;21059;-72
2022/07/28 08:26:09;;;;;;;12.90;1.15;;;;;;;24.62;50.89;100366.81;1804216;79;21902;-72
2022/07/28 08:28:37;;;;;;;3.27;1.00;;;;;;;24.66;50.08;100368.86;1788809;79;20932;-72
2022/07/28 08:31:04;;;;;;;4.85;1.12;;;;;;;24.68;50.34;100370.00;1816985;77;20987;-71
2022/07/28 08:33:30;;;;;;;1.57;0.82;;;;;;;24.68;49.95;100375.40;1816564;79;21393;-71
2022/07/28 08:35:57;;;;;;;1.65;0.80;;;;;;;24.61;49.92;100365.13;1816906;79;20934;-72
2022/07/28 08:38:23;;;;;;;7.85;1.10;;;;;;;24.50;50.55;100368.80;1838883;77;21946;-72
2022/07/28 08:40:50;;;;;;;3.20;0.90;;;;;;;24.45;50.64;100368.63;1816606;79;20934;-72
2022/07/28 08:43:34;;;;;;;6.35;1.00;;;;;;;24.43;51.02;100369.37;1817080;77;21429;-72
2022/07/28 08:46:05;;;;;;;5.75;1.02;;;;;;;24.45;51.26;100369.98;1816505;79;21472;-72
2022/07/28 08:48:35;;;;;;;2.67;1.00;;;;;;;24.49;50.62;100369.02;1830382;77;20978;-72
2022/07/28 08:51:08;;;;;;;6.62;1.80;;;;;;;24.47;50.02;100369.24;1849913;77;21810;-72
2022/07/28 08:53:38;;;;;;;4.60;1.20;;;;;;;24.50;50.41;100371.51;1849136;77;21414;-73
2022/07/28 08:56:07;;;;;;;1.12;0.80;;;;;;;24.57;50.48;100368.80;1817075;77;20982;-72
2022/07/28 08:58:35;;;;;;;5.97;0.98;;;;;;;24.62;50.14;100371.70;1833068;77;20978;-72
2022/07/28 09:01:01;;;;;;;1.98;0.80;;;;;;;24.65;50.15;100370.44;1842477;77;21037;-72
2022/07/28 09:03:28;;;;;;;3.05;1.00;;;;;;;24.65;49.83;100367.20;1816627;79;21922;-72
2022/07/28 09:05:56;;;;;;;1.77;0.93;;;;;;;24.62;50.21;100374.40;1816433;79;21025;-72
2022/07/28 09:08:23;;;;;;;3.52;1.20;;;;;;;24.65;50.27;100379.36;1816503;79;21099;-72
2022/07/28 09:10:51;;;;;;;1.50;0.90;;;;;;;24.64;50.21;100378.23;1821176;77;21524;-72
2022/07/28 09:13:19;;;;;;;2.33;1.02;;;;;;;24.62;50.37;100378.97;1820652;77;20990;-72
2022/07/28 09:15:46;;;;;;;1.72;1.00;;;;;;;24.63;50.59;100379.27;1816288;79;21955;-72
2022/07/28 09:18:13;;;;;;;2.20;1.00;;;;;;;24.61;50.41;100382.20;1816472;79;21004;-72
2022/07/28 09:20:40;;;;;;;2.20;1.00;;;;;;;24.60;50.86;100381.86;1816288;79;21031;-72
2022/07/28 09:23:08;;;;;;;1.85;1.00;;;;;;;24.65;51.06;100377.19;1816188;79;20973;-72
2022/07/28 09:25:35;;;;;;;3.98;1.10;;;;;;;24.63;51.07;100381.45;1816263;78;20990;-72
2022/07/28 09:28:08;;;;;;;2.87;1.15;;;;;;;24.63;51.29;100387.38;1816514;77;21916;-72
2022/07/28 09:30:39;;;;;;;2.12;1.02;;;;;;;24.62;51.47;100383.85;1816314;79;25237;-72
2022/07/28 09:33:20;;;;;;;14.93;2.40;;;;;;;24.63;51.88;100382.80;1816252;79;21477;-72
2022/07/28 09:35:55;;;;;;;3.05;1.30;;;;;;;24.69;52.09;100390.03;1816827;77;20989;-72
2022/07/28 09:38:26;;;;;;;9.73;1.77;;;;;;;24.71;51.84;100388.50;1815524;79;21001;-72
2022/07/28 09:41:05;;;;;;;5.62;1.40;;;;;;;24.72;51.95;100379.34;1816756;77;22058;-73
2022/07/28 09:43:37;;;;;;;2.65;1.60;;;;;;;24.75;52.53;100373.50;1816215;78;20997;-72
2022/07/28 09:46:11;;;;;;;4.40;1.20;;;;;;;24.77;52.72;100381.70;1817598;77;20974;-73
2022/07/28 09:48:54;;;;;;;4.25;1.30;;;;;;;24.79;52.18;100376.90;1816250;79;21001;-72
2022/07/28 09:51:27;;;;;;;5.28;1.10;;;;;;;24.77;52.11;100373.59;1816470;79;21419;-73
2022/07/28 09:54:12;;;;;;;5.40;1.30;;;;;;;24.78;51.96;100379.82;1816227;78;21921;-72
2022/07/28 09:56:42;;;;;;;2.37;1.20;;;;;;;24.77;52.33;100382.22;1816252;78;21580;-72
2022/07/28 09:59:10;;;;;;;4.17;1.00;;;;;;;24.86;52.47;100375.53;1816337;79;20934;-72
2022/07/28 10:01:57;;;;;;;2.90;1.00;;;;;;;25.01;52.25;100372.56;1831047;77;20950;-72
2022/07/28 10:04:38;;;;;;;3.47;1.10;;;;;;;25.14;51.83;100368.97;1816223;79;20970;-71
2022/07/28 10:07:15;;;;;;;2.70;1.00;;;;;;;25.29;51.17;100371.70;1816886;77;22666;-72
2022/07/28 10:09:42;;;;;;;2.62;1.07;;;;;;;25.46;51.24;100377.91;1849623;77;20962;-72
2022/07/28 10:12:20;;;;;;;1.22;0.93;;;;;;;25.59;49.98;100385.41;1846658;77;21033;-73
2022/07/28 10:14:52;;;;;;;1.55;1.10;;;;;;;25.61;49.08;100386.02;1849119;77;20994;-71
2022/07/28 10:17:30;;;;;;;1.95;1.00;;;;;;;25.54;49.11;100387.11;1847546;77;20975;-72
2022/07/28 10:20:04;;;;;;;2.25;1.10;;;;;;;25.45;48.92;100386.55;1833544;77;21867;-72
2022/07/28 10:22:33;;;;;;;1.25;0.98;;;;;;;25.45;49.63;100388.42;1847094;77;21381;-71
2022/07/28 10:25:03;;;;;;;1.15;1.00;;;;;;;25.53;49.78;100392.22;1823797;77;20926;-71
2022/07/28 10:27:30;;;;;;;7.47;1.70;;;;;;;25.58;49.53;100389.17;1847685;77;20990;-72
2022/07/28 10:29:58;;;;;;;1.37;0.88;;;;;;;25.72;49.35;100383.67;1797366;77;21002;-72
2022/07/28 10:32:28;;;;;;;5.70;1.20;;;;;;;25.75;48.41;100387.28;1847088;77;21954;-72
2022/07/28 10:35:03;;;;;;;2.80;1.15;;;;;;;25.67;48.06;100388.34;1847470;77;20985;-72
2022/07/28 10:37:30;;;;;;;2.90;1.37;;;;;;;25.60;47.99;100381.66;1820556;77;20938;-72
2022/07/28 10:40:02;;;;;;;4.97;1.22;;;;;;;25.58;48.71;100381.58;1814343;79;21441;-71
2022/07/28 10:42:29;;;;;;;2.83;1.10;;;;;;;25.59;48.95;100381.88;1817678;77;20943;-71
2022/07/28 10:44:57;;;;;;;3.58;1.00;;;;;;;25.64;49.20;100385.56;1814459;77;21904;-72
2022/07/28 10:47:27;;;;;;;3.27;1.30;;;;;;;25.71;49.38;100391.49;1814461;79;20978;-72
2022/07/28 10:49:54;;;;;;;3.92;1.35;;;;;;;25.74;49.08;100391.05;1814327;77;20985;-72
2022/07/28 10:52:21;;;;;;;6.92;1.40;;;;;;;25.76;49.21;100393.00;1814478;79;20939;-72
2022/07/28 10:55:17;;;;;;;1.95;1.30;;;;;;;25.81;49.53;100394.53;1842611;77;20946;-72
2022/07/28 10:58:21;;;;;;;7.62;1.70;;;;;;;25.81;49.02;100396.70;1820501;77;21887;-72
2022/07/28 11:00:50;;;;;;;;;;;;;;;25.76;48.94;100383.00;1788138;77;21815;-72
2022/07/28 11:03:46;;;;;;;11.70;2.22;;;;;;;25.78;48.89;100381.45;1817958;77;20126;-72
2022/07/28 11:06:40;;;;;;;5.40;1.40;;;;;;;25.86;49.67;100387.91;1845973;77;20982;-72
2022/07/28 11:09:20;;;;;;;2.42;1.20;;;;;;;26.10;49.02;100382.19;1847772;77;20911;-72
2022/07/28 11:11:53;;;;;;;4.03;1.20;;;;;;;26.40;48.81;100380.44;1816429;77;21812;-74
2022/07/28 11:14:36;;;;;;;3.75;1.20;;;;;;;26.73;48.17;100376.50;1814447;77;21058;-72
2022/07/28 11:17:12;;;;;;;4.62;1.20;;;;;;;26.89;47.75;100384.55;1814206;79;20966;-73
2022/07/28 11:19:50;;;;;;;2.62;1.07;;;;;;;26.95;47.00;100375.52;1814422;79;20954;-73
2022/07/28 11:22:21;;;;;;;2.70;1.27;;;;;;;27.11;46.79;100378.95;1836787;77;21345;-71
2022/07/28 11:25:03;;;;;;;1.90;0.93;;;;;;;27.34;46.50;100372.80;1847771;77;22291;-72
2022/07/28 11:27:45;;;;;;;2.15;1.10;;;;;;;27.45;45.31;100370.64;1834368;77;20930;-71
2022/07/28 11:30:31;;;;;;;1.82;0.85;;;;;;;27.59;45.12;100372.59;1814376;79;21009;-72
2022/07/28 11:32:59;;;;;;;5.03;1.15;;;;;;;27.70;42.71;100371.84;1827573;77;20982;-72
2022/07/28 11:35:43;;;;;;;4.00;1.07;;;;;;;27.65;42.12;100370.31;1814168;79;20990;-71
2022/07/28 11:38:12;;;;;;;1.87;1.12;;;;;;;27.72;43.12;100369.72;1805019;78;21946;-72
2022/07/28 11:40:46;;;;;;;3.80;1.10;;;;;;;27.99;43.77;100361.09;1832781;77;20974;-71